sensor_id;sensor_type;location;lat;lon;timestamp;P1;durP1;ratioP1;P2;durP2;ratioP2
37379;SDS011;23252;-33.992;18.480;2023-05-29T00:01:36;17.07;;;2.73;;
37379;SDS011;23252;-33.992;18.480;2023-05-29T00:04:03;21.42;;;2.97;;
37379;SDS011;23252;-33.992;18.480;2023-05-29T00:06:29;18.80;;;2.90;;
37379;SDS011;23252;-33.992;18.480;2023-05-29T00:08:56;22.15;;;3.45;;
37379;SDS011;23252;-33.992;18.480;2023-05-29T00:11:23;17.98;;;3.22;;
37379;SDS011;23252;-33.992;18.480;2023-05-29T00:16:16;16.60;;;2.92;;
37379;SDS011;23252;-33.992;18.480;2023-05-29T00:18:43;20.63;;;3.07;;
37379;SDS011;23252;-33.992;18.480;2023-05-29T00:21:12;24.85;;;2.88;;
37379;SDS011;23252;-33.992;18.480;2023-05-29T00:23:39;19.13;;;2.47;;
37379;SDS011;23252;-33.992;18.480;2023-05-29T00:26:05;18.60;;;3.87;;
37379;SDS011;23252;-33.992;18.480;2023-05-29T00:28:32;22.50;;;2.72;;
37379;SDS011;23252;-33.992;18.480;2023-05-29T00:30:59;12.60;;;1.98;;
37379;SDS011;23252;-33.992;18.480;2023-05-29T00:33:26;15.90;;;3.20;;
37379;SDS011;23252;-33.992;18.480;2023-05-29T00:35:53;11.18;;;2.08;;
37379;SDS011;23252;-33.992;18.480;2023-05-29T00:38:19;6.87;;;0.90;;
37379;SDS011;23252;-33.992;18.480;2023-05-29T00:40:45;10.00;;;1.65;;
37379;SDS011;23252;-33.992;18.480;2023-05-29T00:43:12;3.50;;;0.57;;
37379;SDS011;23252;-33.992;18.480;2023-05-29T00:45:39;8.77;;;1.43;;
37379;SDS011;23252;-33.992;18.480;2023-05-29T00:48:05;11.98;;;1.27;;
37379;SDS011;23252;-33.992;18.480;2023-05-29T00:50:33;9.18;;;1.27;;
37379;SDS011;23252;-33.992;18.480;2023-05-29T00:53:00;10.57;;;1.30;;
37379;SDS011;23252;-33.992;18.480;2023-05-29T00:55:30;10.57;;;1.73;;
37379;SDS011;23252;-33.992;18.480;2023-05-29T00:57:56;11.85;;;1.80;;
37379;SDS011;23252;-33.992;18.480;2023-05-29T01:00:23;18.00;;;2.03;;
37379;SDS011;23252;-33.992;18.480;2023-05-29T01:02:50;8.35;;;1.73;;
37379;SDS011;23252;-33.992;18.480;2023-05-29T01:05:17;14.15;;;2.35;;
37379;SDS011;23252;-33.992;18.480;2023-05-29T01:07:44;15.23;;;2.15;;
37379;SDS011;23252;-33.992;18.480;2023-05-29T01:10:11;10.47;;;1.87;;
37379;SDS011;23252;-33.992;18.480;2023-05-29T01:15:18;10.02;;;1.98;;
37379;SDS011;23252;-33.992;18.480;2023-05-29T01:18:06;7.53;;;1.52;;
37379;SDS011;23252;-33.992;18.480;2023-05-29T01:20:50;9.15;;;1.33;;
37379;SDS011;23252;-33.992;18.480;2023-05-29T01:29:00;12.25;;;1.92;;
37379;SDS011;23252;-33.992;18.480;2023-05-29T01:31:29;13.85;;;3.30;;
37379;SDS011;23252;-33.992;18.480;2023-05-29T01:33:57;8.90;;;2.08;;
37379;SDS011;23252;-33.992;18.480;2023-05-29T01:36:27;14.45;;;2.33;;
37379;SDS011;23252;-33.992;18.480;2023-05-29T01:38:55;11.27;;;1.52;;
37379;SDS011;23252;-33.992;18.480;2023-05-29T01:41:23;14.25;;;3.58;;
37379;SDS011;23252;-33.992;18.480;2023-05-29T01:43:51;20.95;;;2.92;;
37379;SDS011;23252;-33.992;18.480;2023-05-29T01:46:18;18.98;;;2.35;;
37379;SDS011;23252;-33.992;18.480;2023-05-29T01:48:46;14.63;;;2.22;;
37379;SDS011;23252;-33.992;18.480;2023-05-29T01:51:14;14.88;;;1.98;;
37379;SDS011;23252;-33.992;18.480;2023-05-29T01:53:41;11.18;;;1.70;;
37379;SDS011;23252;-33.992;18.480;2023-05-29T01:58:35;11.35;;;1.92;;
37379;SDS011;23252;-33.992;18.480;2023-05-29T02:01:02;11.27;;;1.67;;
37379;SDS011;23252;-33.992;18.480;2023-05-29T02:03:31;12.50;;;1.35;;
37379;SDS011;23252;-33.992;18.480;2023-05-29T02:05:59;9.40;;;1.75;;
37379;SDS011;23252;-33.992;18.480;2023-05-29T02:08:26;5.18;;;1.10;;
37379;SDS011;23252;-33.992;18.480;2023-05-29T02:10:53;5.72;;;1.42;;
37379;SDS011;23252;-33.992;18.480;2023-05-29T02:13:20;10.95;;;2.22;;
37379;SDS011;23252;-33.992;18.480;2023-05-29T02:15:46;7.70;;;1.13;;
37379;SDS011;23252;-33.992;18.480;2023-05-29T02:18:13;10.02;;;1.20;;
37379;SDS011;23252;-33.992;18.480;2023-05-29T02:20:42;8.45;;;1.23;;
37379;SDS011;23252;-33.992;18.480;2023-05-29T02:23:09;4.50;;;1.25;;
37379;SDS011;23252;-33.992;18.480;2023-05-29T02:25:35;3.65;;;1.00;;
37379;SDS011;23252;-33.992;18.480;2023-05-29T02:28:02;5.10;;;0.80;;
37379;SDS011;23252;-33.992;18.480;2023-05-29T02:30:30;6.60;;;0.95;;
37379;SDS011;23252;-33.992;18.480;2023-05-29T02:32:56;9.27;;;1.20;;
37379;SDS011;23252;-33.992;18.480;2023-05-29T02:35:23;9.23;;;1.63;;
37379;SDS011;23252;-33.992;18.480;2023-05-29T02:37:50;7.60;;;1.30;;
37379;SDS011;23252;-33.992;18.480;2023-05-29T02:40:17;11.95;;;1.38;;
37379;SDS011;23252;-33.992;18.480;2023-05-29T02:42:45;6.93;;;1.10;;
37379;SDS011;23252;-33.992;18.480;2023-05-29T02:45:12;13.32;;;1.65;;
37379;SDS011;23252;-33.992;18.480;2023-05-29T02:47:38;7.33;;;1.10;;
37379;SDS011;23252;-33.992;18.480;2023-05-29T02:50:05;2.75;;;0.85;;
37379;SDS011;23252;-33.992;18.480;2023-05-29T02:52:33;7.60;;;1.20;;
37379;SDS011;23252;-33.992;18.480;2023-05-29T02:55:02;7.13;;;1.35;;
37379;SDS011;23252;-33.992;18.480;2023-05-29T02:57:30;9.18;;;1.33;;
37379;SDS011;23252;-33.992;18.480;2023-05-29T02:59:57;9.45;;;1.48;;
37379;SDS011;23252;-33.992;18.480;2023-05-29T03:02:24;7.80;;;1.00;;
37379;SDS011;23252;-33.992;18.480;2023-05-29T03:04:51;11.90;;;1.13;;
37379;SDS011;23252;-33.992;18.480;2023-05-29T03:07:19;5.30;;;1.00;;
37379;SDS011;23252;-33.992;18.480;2023-05-29T03:09:45;1.85;;;0.55;;
37379;SDS011;23252;-33.992;18.480;2023-05-29T03:12:12;10.15;;;1.50;;
37379;SDS011;23252;-33.992;18.480;2023-05-29T03:14:38;11.47;;;1.20;;
37379;SDS011;23252;-33.992;18.480;2023-05-29T03:17:05;13.27;;;1.40;;
37379;SDS011;23252;-33.992;18.480;2023-05-29T03:19:33;13.27;;;2.30;;
37379;SDS011;23252;-33.992;18.480;2023-05-29T03:21:59;9.77;;;1.30;;
37379;SDS011;23252;-33.992;18.480;2023-05-29T03:24:26;7.93;;;1.30;;
37379;SDS011;23252;-33.992;18.480;2023-05-29T03:26:52;8.97;;;1.20;;
37379;SDS011;23252;-33.992;18.480;2023-05-29T03:29:19;7.60;;;1.52;;
37379;SDS011;23252;-33.992;18.480;2023-05-29T03:31:45;8.05;;;1.15;;
37379;SDS011;23252;-33.992;18.480;2023-05-29T03:34:12;11.47;;;1.40;;
37379;SDS011;23252;-33.992;18.480;2023-05-29T03:36:38;9.17;;;1.13;;
37379;SDS011;23252;-33.992;18.480;2023-05-29T03:39:05;3.58;;;1.10;;
37379;SDS011;23252;-33.992;18.480;2023-05-29T03:41:32;8.27;;;0.95;;
37379;SDS011;23252;-33.992;18.480;2023-05-29T03:43:58;6.13;;;0.90;;
37379;SDS011;23252;-33.992;18.480;2023-05-29T03:46:24;5.63;;;1.10;;
37379;SDS011;23252;-33.992;18.480;2023-05-29T03:51:18;6.97;;;1.10;;
37379;SDS011;23252;-33.992;18.480;2023-05-29T03:53:45;8.23;;;0.90;;
37379;SDS011;23252;-33.992;18.480;2023-05-29T03:56:11;6.93;;;1.05;;
37379;SDS011;23252;-33.992;18.480;2023-05-29T03:58:38;8.07;;;1.38;;
37379;SDS011;23252;-33.992;18.480;2023-05-29T04:01:04;6.68;;;1.23;;
37379;SDS011;23252;-33.992;18.480;2023-05-29T04:03:31;7.67;;;1.83;;
37379;SDS011;23252;-33.992;18.480;2023-05-29T04:05:57;9.20;;;1.65;;
37379;SDS011;23252;-33.992;18.480;2023-05-29T04:08:24;6.80;;;1.35;;
37379;SDS011;23252;-33.992;18.480;2023-05-29T04:10:51;11.57;;;1.25;;
37379;SDS011;23252;-33.992;18.480;2023-05-29T04:13:20;8.48;;;1.20;;
37379;SDS011;23252;-33.992;18.480;2023-05-29T04:15:46;10.57;;;1.38;;
37379;SDS011;23252;-33.992;18.480;2023-05-29T04:18:13;13.32;;;2.00;;
37379;SDS011;23252;-33.992;18.480;2023-05-29T04:20:40;9.02;;;1.77;;
37379;SDS011;23252;-33.992;18.480;2023-05-29T04:23:06;16.27;;;1.60;;
37379;SDS011;23252;-33.992;18.480;2023-05-29T04:25:33;19.37;;;2.30;;
37379;SDS011;23252;-33.992;18.480;2023-05-29T04:27:59;8.10;;;1.42;;
37379;SDS011;23252;-33.992;18.480;2023-05-29T04:30:27;9.15;;;1.70;;
37379;SDS011;23252;-33.992;18.480;2023-05-29T04:32:54;5.05;;;1.23;;
37379;SDS011;23252;-33.992;18.480;2023-05-29T04:35:21;9.47;;;1.50;;
37379;SDS011;23252;-33.992;18.480;2023-05-29T04:37:47;9.67;;;1.67;;
37379;SDS011;23252;-33.992;18.480;2023-05-29T04:40:14;11.55;;;1.20;;
37379;SDS011;23252;-33.992;18.480;2023-05-29T04:42:43;16.02;;;1.80;;
37379;SDS011;23252;-33.992;18.480;2023-05-29T04:45:12;10.40;;;1.85;;
37379;SDS011;23252;-33.992;18.480;2023-05-29T04:47:39;10.05;;;1.23;;
37379;SDS011;23252;-33.992;18.480;2023-05-29T04:50:12;6.65;;;1.67;;
37379;SDS011;23252;-33.992;18.480;2023-05-29T04:52:38;13.32;;;2.05;;
37379;SDS011;23252;-33.992;18.480;2023-05-29T04:55:05;16.20;;;1.67;;
37379;SDS011;23252;-33.992;18.480;2023-05-29T04:57:32;13.52;;;2.55;;
37379;SDS011;23252;-33.992;18.480;2023-05-29T04:59:59;14.50;;;2.00;;
37379;SDS011;23252;-33.992;18.480;2023-05-29T05:02:25;12.48;;;2.63;;
37379;SDS011;23252;-33.992;18.480;2023-05-29T05:04:51;14.60;;;2.20;;
37379;SDS011;23252;-33.992;18.480;2023-05-29T05:07:18;21.17;;;5.50;;
37379;SDS011;23252;-33.992;18.480;2023-05-29T05:09:44;16.80;;;2.47;;
37379;SDS011;23252;-33.992;18.480;2023-05-29T05:12:11;21.40;;;2.90;;
37379;SDS011;23252;-33.992;18.480;2023-05-29T05:14:37;14.67;;;2.67;;
37379;SDS011;23252;-33.992;18.480;2023-05-29T05:17:04;21.00;;;3.25;;
37379;SDS011;23252;-33.992;18.480;2023-05-29T05:19:31;19.75;;;3.30;;
37379;SDS011;23252;-33.992;18.480;2023-05-29T05:21:57;25.23;;;4.07;;
37379;SDS011;23252;-33.992;18.480;2023-05-29T05:24:23;20.90;;;2.57;;
37379;SDS011;23252;-33.992;18.480;2023-05-29T05:26:50;19.23;;;2.50;;
37379;SDS011;23252;-33.992;18.480;2023-05-29T05:29:16;16.57;;;2.10;;
37379;SDS011;23252;-33.992;18.480;2023-05-29T05:31:43;19.97;;;2.87;;
37379;SDS011;23252;-33.992;18.480;2023-05-29T05:34:12;15.35;;;2.38;;
37379;SDS011;23252;-33.992;18.480;2023-05-29T05:36:39;26.40;;;3.47;;
37379;SDS011;23252;-33.992;18.480;2023-05-29T05:39:06;11.73;;;2.30;;
37379;SDS011;23252;-33.992;18.480;2023-05-29T05:41:35;13.95;;;2.30;;
37379;SDS011;23252;-33.992;18.480;2023-05-29T05:44:16;14.63;;;1.90;;
37379;SDS011;23252;-33.992;18.480;2023-05-29T05:47:04;7.00;;;1.27;;
37379;SDS011;23252;-33.992;18.480;2023-05-29T05:49:55;11.98;;;1.17;;
37379;SDS011;23252;-33.992;18.480;2023-05-29T05:52:32;11.15;;;1.60;;
37379;SDS011;23252;-33.992;18.480;2023-05-29T05:55:02;12.48;;;2.20;;
37379;SDS011;23252;-33.992;18.480;2023-05-29T05:57:37;7.97;;;1.17;;
37379;SDS011;23252;-33.992;18.480;2023-05-29T06:00:07;9.57;;;1.77;;
37379;SDS011;23252;-33.992;18.480;2023-05-29T06:02:37;10.15;;;1.80;;
37379;SDS011;23252;-33.992;18.480;2023-05-29T06:05:11;9.65;;;1.50;;
37379;SDS011;23252;-33.992;18.480;2023-05-29T06:07:40;10.23;;;1.50;;
37379;SDS011;23252;-33.992;18.480;2023-05-29T06:10:08;18.15;;;2.30;;
37379;SDS011;23252;-33.992;18.480;2023-05-29T06:12:38;11.38;;;1.67;;
37379;SDS011;23252;-33.992;18.480;2023-05-29T06:15:16;9.38;;;1.40;;
37379;SDS011;23252;-33.992;18.480;2023-05-29T06:17:43;13.30;;;1.98;;
37379;SDS011;23252;-33.992;18.480;2023-05-29T06:20:10;8.48;;;1.33;;
37379;SDS011;23252;-33.992;18.480;2023-05-29T06:22:37;7.45;;;1.65;;
37379;SDS011;23252;-33.992;18.480;2023-05-29T06:25:03;13.13;;;1.67;;
37379;SDS011;23252;-33.992;18.480;2023-05-29T06:27:30;9.63;;;2.05;;
37379;SDS011;23252;-33.992;18.480;2023-05-29T06:29:57;5.03;;;1.20;;
37379;SDS011;23252;-33.992;18.480;2023-05-29T06:32:26;8.40;;;1.60;;
37379;SDS011;23252;-33.992;18.480;2023-05-29T06:34:53;9.95;;;1.65;;
37379;SDS011;23252;-33.992;18.480;2023-05-29T06:37:22;11.93;;;1.42;;
37379;SDS011;23252;-33.992;18.480;2023-05-29T06:39:49;8.47;;;1.20;;
37379;SDS011;23252;-33.992;18.480;2023-05-29T06:42:15;10.33;;;1.20;;
37379;SDS011;23252;-33.992;18.480;2023-05-29T06:44:45;11.80;;;1.48;;
37379;SDS011;23252;-33.992;18.480;2023-05-29T06:47:11;11.18;;;1.60;;
37379;SDS011;23252;-33.992;18.480;2023-05-29T06:49:47;7.93;;;1.55;;
37379;SDS011;23252;-33.992;18.480;2023-05-29T06:52:13;10.85;;;1.38;;
37379;SDS011;23252;-33.992;18.480;2023-05-29T06:54:42;9.43;;;1.53;;
37379;SDS011;23252;-33.992;18.480;2023-05-29T06:57:12;6.25;;;1.40;;
37379;SDS011;23252;-33.992;18.480;2023-05-29T06:59:39;9.37;;;1.70;;
37379;SDS011;23252;-33.992;18.480;2023-05-29T07:02:08;10.52;;;1.48;;
37379;SDS011;23252;-33.992;18.480;2023-05-29T07:04:35;10.52;;;1.70;;
37379;SDS011;23252;-33.992;18.480;2023-05-29T07:07:02;13.43;;;1.67;;
37379;SDS011;23252;-33.992;18.480;2023-05-29T07:09:28;14.32;;;1.88;;
37379;SDS011;23252;-33.992;18.480;2023-05-29T07:12:05;10.52;;;1.50;;
37379;SDS011;23252;-33.992;18.480;2023-05-29T07:14:31;9.98;;;1.52;;
37379;SDS011;23252;-33.992;18.480;2023-05-29T07:16:59;15.60;;;1.92;;
37379;SDS011;23252;-33.992;18.480;2023-05-29T07:19:25;8.32;;;1.52;;
37379;SDS011;23252;-33.992;18.480;2023-05-29T07:21:53;4.63;;;1.50;;
37379;SDS011;23252;-33.992;18.480;2023-05-29T07:24:19;8.68;;;1.48;;
37379;SDS011;23252;-33.992;18.480;2023-05-29T07:26:46;8.50;;;1.83;;
37379;SDS011;23252;-33.992;18.480;2023-05-29T07:29:12;9.43;;;1.35;;
37379;SDS011;23252;-33.992;18.480;2023-05-29T07:31:40;18.23;;;1.95;;
37379;SDS011;23252;-33.992;18.480;2023-05-29T07:34:09;9.20;;;1.48;;
37379;SDS011;23252;-33.992;18.480;2023-05-29T07:36:36;11.38;;;1.80;;
37379;SDS011;23252;-33.992;18.480;2023-05-29T07:39:21;12.70;;;1.58;;
37379;SDS011;23252;-33.992;18.480;2023-05-29T07:41:47;7.55;;;2.33;;
37379;SDS011;23252;-33.992;18.480;2023-05-29T07:44:14;8.93;;;1.30;;
37379;SDS011;23252;-33.992;18.480;2023-05-29T07:46:40;17.07;;;2.37;;
37379;SDS011;23252;-33.992;18.480;2023-05-29T07:49:07;8.15;;;1.65;;
37379;SDS011;23252;-33.992;18.480;2023-05-29T07:51:33;10.55;;;1.65;;
37379;SDS011;23252;-33.992;18.480;2023-05-29T07:54:00;18.25;;;1.80;;
37379;SDS011;23252;-33.992;18.480;2023-05-29T07:56:26;7.40;;;1.47;;
37379;SDS011;23252;-33.992;18.480;2023-05-29T07:58:53;5.18;;;1.40;;
37379;SDS011;23252;-33.992;18.480;2023-05-29T08:01:22;9.55;;;1.77;;
37379;SDS011;23252;-33.992;18.480;2023-05-29T08:03:49;13.23;;;1.73;;
37379;SDS011;23252;-33.992;18.480;2023-05-29T08:06:15;11.05;;;1.73;;
37379;SDS011;23252;-33.992;18.480;2023-05-29T08:08:42;6.60;;;1.50;;
37379;SDS011;23252;-33.992;18.480;2023-05-29T08:11:09;11.27;;;1.80;;
37379;SDS011;23252;-33.992;18.480;2023-05-29T08:13:36;15.52;;;2.30;;
37379;SDS011;23252;-33.992;18.480;2023-05-29T08:16:03;14.98;;;2.22;;
37379;SDS011;23252;-33.992;18.480;2023-05-29T08:18:30;9.95;;;1.42;;
37379;SDS011;23252;-33.992;18.480;2023-05-29T08:21:00;11.95;;;1.60;;
37379;SDS011;23252;-33.992;18.480;2023-05-29T08:23:27;8.87;;;1.27;;
37379;SDS011;23252;-33.992;18.480;2023-05-29T08:25:53;12.50;;;1.92;;
37379;SDS011;23252;-33.992;18.480;2023-05-29T08:28:20;18.55;;;1.85;;
37379;SDS011;23252;-33.992;18.480;2023-05-29T08:30:47;10.93;;;1.75;;
37379;SDS011;23252;-33.992;18.480;2023-05-29T08:33:14;7.77;;;1.73;;
37379;SDS011;23252;-33.992;18.480;2023-05-29T08:35:40;8.37;;;1.47;;
37379;SDS011;23252;-33.992;18.480;2023-05-29T08:38:07;13.45;;;2.30;;
37379;SDS011;23252;-33.992;18.480;2023-05-29T08:40:33;14.50;;;2.23;;
37379;SDS011;23252;-33.992;18.480;2023-05-29T08:43:02;14.75;;;2.53;;
37379;SDS011;23252;-33.992;18.480;2023-05-29T08:45:33;8.75;;;2.00;;
37379;SDS011;23252;-33.992;18.480;2023-05-29T08:48:02;7.55;;;1.17;;
37379;SDS011;23252;-33.992;18.480;2023-05-29T08:50:29;9.55;;;1.83;;
37379;SDS011;23252;-33.992;18.480;2023-05-29T08:52:56;7.28;;;1.40;;
37379;SDS011;23252;-33.992;18.480;2023-05-29T08:55:23;13.50;;;1.50;;
37379;SDS011;23252;-33.992;18.480;2023-05-29T08:57:49;7.45;;;1.27;;
37379;SDS011;23252;-33.992;18.480;2023-05-29T09:00:16;15.27;;;1.70;;
37379;SDS011;23252;-33.992;18.480;2023-05-29T09:02:45;10.50;;;1.35;;
37379;SDS011;23252;-33.992;18.480;2023-05-29T09:05:11;7.30;;;1.47;;
37379;SDS011;23252;-33.992;18.480;2023-05-29T09:07:39;8.45;;;1.42;;
37379;SDS011;23252;-33.992;18.480;2023-05-29T09:10:06;9.95;;;1.70;;
37379;SDS011;23252;-33.992;18.480;2023-05-29T09:12:34;14.93;;;1.85;;
37379;SDS011;23252;-33.992;18.480;2023-05-29T09:15:02;12.00;;;1.95;;
37379;SDS011;23252;-33.992;18.480;2023-05-29T09:17:33;9.07;;;1.48;;
37379;SDS011;23252;-33.992;18.480;2023-05-29T09:20:00;9.52;;;1.88;;
37379;SDS011;23252;-33.992;18.480;2023-05-29T09:22:28;13.75;;;2.33;;
37379;SDS011;23252;-33.992;18.480;2023-05-29T09:24:55;10.07;;;1.60;;
37379;SDS011;23252;-33.992;18.480;2023-05-29T09:27:24;10.60;;;1.67;;
37379;SDS011;23252;-33.992;18.480;2023-05-29T09:29:51;13.25;;;1.80;;
37379;SDS011;23252;-33.992;18.480;2023-05-29T09:32:18;19.07;;;2.87;;
37379;SDS011;23252;-33.992;18.480;2023-05-29T09:34:45;15.35;;;2.08;;
37379;SDS011;23252;-33.992;18.480;2023-05-29T09:37:12;14.70;;;1.67;;
37379;SDS011;23252;-33.992;18.480;2023-05-29T09:42:09;17.70;;;1.95;;
37379;SDS011;23252;-33.992;18.480;2023-05-29T09:44:36;10.60;;;1.63;;
37379;SDS011;23252;-33.992;18.480;2023-05-29T09:47:03;13.23;;;2.43;;
37379;SDS011;23252;-33.992;18.480;2023-05-29T09:49:31;10.45;;;1.88;;
37379;SDS011;23252;-33.992;18.480;2023-05-29T09:51:58;10.70;;;1.75;;
37379;SDS011;23252;-33.992;18.480;2023-05-29T09:54:28;11.20;;;1.65;;
37379;SDS011;23252;-33.992;18.480;2023-05-29T09:56:57;10.10;;;1.50;;
37379;SDS011;23252;-33.992;18.480;2023-05-29T09:59:26;8.52;;;1.55;;
37379;SDS011;23252;-33.992;18.480;2023-05-29T10:02:00;9.05;;;0.93;;
37379;SDS011;23252;-33.992;18.480;2023-05-29T10:04:32;7.30;;;1.27;;
37379;SDS011;23252;-33.992;18.480;2023-05-29T10:09:51;7.82;;;1.60;;
37379;SDS011;23252;-33.992;18.480;2023-05-29T10:12:25;9.73;;;1.40;;
37379;SDS011;23252;-33.992;18.480;2023-05-29T10:14:59;6.38;;;1.25;;
37379;SDS011;23252;-33.992;18.480;2023-05-29T10:17:28;11.50;;;1.88;;
37379;SDS011;23252;-33.992;18.480;2023-05-29T10:20:01;17.02;;;1.80;;
37379;SDS011;23252;-33.992;18.480;2023-05-29T10:22:31;16.48;;;2.00;;
37379;SDS011;23252;-33.992;18.480;2023-05-29T10:24:59;11.50;;;2.05;;
37379;SDS011;23252;-33.992;18.480;2023-05-29T10:27:26;15.93;;;2.17;;
37379;SDS011;23252;-33.992;18.480;2023-05-29T10:29:55;13.82;;;2.03;;
37379;SDS011;23252;-33.992;18.480;2023-05-29T10:32:36;10.15;;;2.10;;
37379;SDS011;23252;-33.992;18.480;2023-05-29T10:38:14;8.82;;;1.65;;
37379;SDS011;23252;-33.992;18.480;2023-05-29T10:40:43;11.85;;;1.52;;
37379;SDS011;23252;-33.992;18.480;2023-05-29T10:43:32;8.73;;;1.60;;
37379;SDS011;23252;-33.992;18.480;2023-05-29T10:46:00;9.63;;;1.52;;
37379;SDS011;23252;-33.992;18.480;2023-05-29T10:48:36;8.25;;;1.67;;
37379;SDS011;23252;-33.992;18.480;2023-05-29T10:51:04;8.02;;;1.58;;
37379;SDS011;23252;-33.992;18.480;2023-05-29T10:53:33;12.45;;;1.50;;
37379;SDS011;23252;-33.992;18.480;2023-05-29T10:56:07;10.63;;;1.85;;
37379;SDS011;23252;-33.992;18.480;2023-05-29T10:58:34;15.93;;;2.28;;
37379;SDS011;23252;-33.992;18.480;2023-05-29T11:01:00;12.63;;;2.05;;
37379;SDS011;23252;-33.992;18.480;2023-05-29T11:03:30;14.90;;;2.65;;
37379;SDS011;23252;-33.992;18.480;2023-05-29T11:05:58;17.35;;;2.35;;
37379;SDS011;23252;-33.992;18.480;2023-05-29T11:08:46;14.73;;;2.10;;
37379;SDS011;23252;-33.992;18.480;2023-05-29T11:11:13;13.40;;;2.35;;
37379;SDS011;23252;-33.992;18.480;2023-05-29T11:13:41;11.20;;;2.30;;
37379;SDS011;23252;-33.992;18.480;2023-05-29T11:16:20;16.10;;;2.47;;
37379;SDS011;23252;-33.992;18.480;2023-05-29T11:19:06;27.83;;;4.00;;
37379;SDS011;23252;-33.992;18.480;2023-05-29T11:21:49;14.27;;;2.45;;
37379;SDS011;23252;-33.992;18.480;2023-05-29T11:24:26;14.95;;;2.42;;
37379;SDS011;23252;-33.992;18.480;2023-05-29T11:26:55;11.75;;;2.33;;
37379;SDS011;23252;-33.992;18.480;2023-05-29T11:29:28;15.73;;;3.42;;
37379;SDS011;23252;-33.992;18.480;2023-05-29T11:32:01;17.38;;;3.00;;
37379;SDS011;23252;-33.992;18.480;2023-05-29T11:34:29;15.82;;;2.53;;
37379;SDS011;23252;-33.992;18.480;2023-05-29T11:36:57;15.02;;;2.75;;
37379;SDS011;23252;-33.992;18.480;2023-05-29T11:39:28;14.93;;;3.15;;
37379;SDS011;23252;-33.992;18.480;2023-05-29T11:41:56;14.52;;;2.25;;
37379;SDS011;23252;-33.992;18.480;2023-05-29T11:44:25;9.33;;;2.73;;
37379;SDS011;23252;-33.992;18.480;2023-05-29T11:47:02;10.10;;;3.72;;
37379;SDS011;23252;-33.992;18.480;2023-05-29T11:49:30;12.93;;;3.47;;
37379;SDS011;23252;-33.992;18.480;2023-05-29T11:52:11;10.40;;;3.45;;
37379;SDS011;23252;-33.992;18.480;2023-05-29T11:54:39;12.35;;;2.95;;
37379;SDS011;23252;-33.992;18.480;2023-05-29T11:57:19;10.63;;;2.28;;
37379;SDS011;23252;-33.992;18.480;2023-05-29T11:59:46;7.60;;;2.20;;
37379;SDS011;23252;-33.992;18.480;2023-05-29T12:02:13;7.72;;;2.20;;
37379;SDS011;23252;-33.992;18.480;2023-05-29T12:04:39;5.80;;;1.90;;
37379;SDS011;23252;-33.992;18.480;2023-05-29T14:13:48;30.55;;;10.35;;
37379;SDS011;23252;-33.992;18.480;2023-05-29T14:16:15;20.10;;;5.57;;
37379;SDS011;23252;-33.992;18.480;2023-05-29T14:18:41;21.80;;;4.55;;
37379;SDS011;23252;-33.992;18.480;2023-05-29T14:21:08;23.43;;;6.43;;
37379;SDS011;23252;-33.992;18.480;2023-05-29T14:23:36;24.33;;;4.60;;
37379;SDS011;23252;-33.992;18.480;2023-05-29T14:26:03;28.20;;;5.20;;
37379;SDS011;23252;-33.992;18.480;2023-05-29T14:28:30;15.07;;;3.77;;
37379;SDS011;23252;-33.992;18.480;2023-05-29T14:30:56;20.03;;;3.83;;
37379;SDS011;23252;-33.992;18.480;2023-05-29T14:33:26;16.23;;;4.47;;
37379;SDS011;23252;-33.992;18.480;2023-05-29T14:35:52;13.13;;;3.07;;
37379;SDS011;23252;-33.992;18.480;2023-05-29T14:38:25;12.48;;;3.55;;
37379;SDS011;23252;-33.992;18.480;2023-05-29T14:40:51;12.70;;;3.73;;
37379;SDS011;23252;-33.992;18.480;2023-05-29T14:43:18;11.60;;;2.90;;
37379;SDS011;23252;-33.992;18.480;2023-05-29T14:45:44;14.27;;;2.90;;
37379;SDS011;23252;-33.992;18.480;2023-05-29T14:48:11;15.13;;;3.43;;
37379;SDS011;23252;-33.992;18.480;2023-05-29T14:50:38;19.87;;;4.33;;
37379;SDS011;23252;-33.992;18.480;2023-05-29T14:53:04;23.70;;;5.82;;
37379;SDS011;23252;-33.992;18.480;2023-05-29T14:55:31;15.10;;;2.57;;
37379;SDS011;23252;-33.992;18.480;2023-05-29T14:58:03;9.63;;;2.10;;
37379;SDS011;23252;-33.992;18.480;2023-05-29T15:02:56;14.10;;;2.90;;
37379;SDS011;23252;-33.992;18.480;2023-05-29T15:05:28;19.73;;;3.17;;
37379;SDS011;23252;-33.992;18.480;2023-05-29T15:07:57;15.30;;;2.80;;
37379;SDS011;23252;-33.992;18.480;2023-05-29T15:10:25;16.40;;;4.07;;
37379;SDS011;23252;-33.992;18.480;2023-05-29T15:12:53;13.98;;;2.85;;
37379;SDS011;23252;-33.992;18.480;2023-05-29T15:15:28;8.15;;;1.83;;
37379;SDS011;23252;-33.992;18.480;2023-05-29T15:17:54;11.18;;;2.50;;
37379;SDS011;23252;-33.992;18.480;2023-05-29T15:20:25;14.40;;;2.60;;
37379;SDS011;23252;-33.992;18.480;2023-05-29T15:22:52;13.63;;;2.35;;
37379;SDS011;23252;-33.992;18.480;2023-05-29T15:27:46;16.90;;;2.17;;
37379;SDS011;23252;-33.992;18.480;2023-05-29T15:30:17;17.63;;;2.95;;
37379;SDS011;23252;-33.992;18.480;2023-05-29T15:32:44;17.42;;;3.45;;
37379;SDS011;23252;-33.992;18.480;2023-05-29T15:35:13;9.00;;;2.13;;
37379;SDS011;23252;-33.992;18.480;2023-05-29T15:37:41;15.02;;;2.47;;
37379;SDS011;23252;-33.992;18.480;2023-05-29T15:42:35;13.55;;;2.60;;
37379;SDS011;23252;-33.992;18.480;2023-05-29T15:45:02;11.82;;;2.92;;
37379;SDS011;23252;-33.992;18.480;2023-05-29T15:47:30;14.25;;;1.80;;
37379;SDS011;23252;-33.992;18.480;2023-05-29T15:49:57;10.38;;;1.77;;
37379;SDS011;23252;-33.992;18.480;2023-05-29T15:52:26;11.73;;;2.28;;
37379;SDS011;23252;-33.992;18.480;2023-05-29T15:54:52;11.43;;;1.98;;
37379;SDS011;23252;-33.992;18.480;2023-05-29T15:57:19;10.73;;;2.10;;
37379;SDS011;23252;-33.992;18.480;2023-05-29T15:59:45;11.90;;;2.28;;
37379;SDS011;23252;-33.992;18.480;2023-05-29T16:02:12;14.63;;;2.33;;
37379;SDS011;23252;-33.992;18.480;2023-05-29T16:04:38;10.67;;;1.80;;
37379;SDS011;23252;-33.992;18.480;2023-05-29T16:07:05;8.40;;;1.58;;
37379;SDS011;23252;-33.992;18.480;2023-05-29T16:09:32;9.95;;;2.15;;
37379;SDS011;23252;-33.992;18.480;2023-05-29T16:11:58;8.93;;;1.63;;
37379;SDS011;23252;-33.992;18.480;2023-05-29T16:14:25;12.57;;;2.28;;
37379;SDS011;23252;-33.992;18.480;2023-05-29T16:16:51;14.02;;;2.63;;
37379;SDS011;23252;-33.992;18.480;2023-05-29T16:19:18;17.48;;;2.55;;
37379;SDS011;23252;-33.992;18.480;2023-05-29T16:21:45;15.65;;;2.25;;
37379;SDS011;23252;-33.992;18.480;2023-05-29T16:24:13;13.15;;;2.05;;
37379;SDS011;23252;-33.992;18.480;2023-05-29T16:26:39;11.40;;;2.33;;
37379;SDS011;23252;-33.992;18.480;2023-05-29T16:29:06;12.57;;;1.67;;
37379;SDS011;23252;-33.992;18.480;2023-05-29T16:31:32;13.97;;;1.60;;
37379;SDS011;23252;-33.992;18.480;2023-05-29T16:33:59;10.87;;;1.50;;
37379;SDS011;23252;-33.992;18.480;2023-05-29T16:36:25;11.20;;;2.30;;
37379;SDS011;23252;-33.992;18.480;2023-05-29T16:38:52;17.07;;;3.70;;
37379;SDS011;23252;-33.992;18.480;2023-05-29T16:41:18;17.77;;;2.92;;
37379;SDS011;23252;-33.992;18.480;2023-05-29T16:43:45;23.33;;;4.00;;
37379;SDS011;23252;-33.992;18.480;2023-05-29T16:46:11;48.63;;;5.30;;
37379;SDS011;23252;-33.992;18.480;2023-05-29T16:48:38;30.47;;;5.90;;
37379;SDS011;23252;-33.992;18.480;2023-05-29T16:53:35;40.78;;;6.60;;
37379;SDS011;23252;-33.992;18.480;2023-05-29T16:56:03;47.83;;;9.02;;
37379;SDS011;23252;-33.992;18.480;2023-05-29T16:58:32;61.05;;;8.48;;
37379;SDS011;23252;-33.992;18.480;2023-05-29T17:01:00;60.00;;;8.43;;